Time;durP1;ratioP1;P1;durP2;ratioP2;P2;SDS_P1;SDS_P2;PMS_P1;PMS_P2;Temp;Humidity;BMP_temperature;BMP_pressure;BME280_temperature;BME280_humidity;BME280_pressure;Samples;Min_cycle;Max_cycle;Signal;HPM_P1;HPM_P2
2021/01/08 00:00:41;;;;;;;13.88;9.88;;;;;;;;;;5072329;28;20210;-73
2021/01/08 00:03:07;;;;;;;15.35;10.60;;;;;;;;;;5074267;28;20191;-73
2021/01/08 00:05:33;;;;;;;14.30;9.85;;;;;;;;;;5085098;28;20180;-72
2021/01/08 00:07:59;;;;;;;13.75;10.02;;;;;;;;;;5090290;28;20207;-72
2021/01/08 00:10:26;;;;;;;14.63;9.45;;;;;;;;;;5085230;28;20238;-70
2021/01/08 00:12:52;;;;;;;14.02;10.00;;;;;;;;;;5069630;28;20230;-70
2021/01/08 00:15:18;;;;;;;12.75;9.60;;;;;;;;;;5074276;28;20642;-72
2021/01/08 00:17:44;;;;;;;13.30;9.05;;;;;;;;;;5072421;28;20200;-71
2021/01/08 00:20:10;;;;;;;13.35;9.85;;;;;;;;;;5080246;28;20187;-71
2021/01/08 00:22:36;;;;;;;12.63;9.10;;;;;;;;;;5078627;28;20580;-72
2021/01/08 00:25:02;;;;;;;11.90;8.27;;;;;;;;;;5077974;28;20184;-72
2021/01/08 00:27:28;;;;;;;12.40;9.05;;;;;;;;;;5078030;28;20200;-71
2021/01/08 00:29:54;;;;;;;11.82;8.70;;;;;;;;;;5082446;28;20215;-72
2021/01/08 00:32:20;;;;;;;11.27;8.15;;;;;;;;;;5071456;28;20199;-72
2021/01/08 00:34:47;;;;;;;12.88;8.52;;;;;;;;;;5074885;28;20226;-71
2021/01/08 00:37:13;;;;;;;11.85;8.70;;;;;;;;;;5069813;28;20680;-73
2021/01/08 00:39:41;;;;;;;11.63;7.97;;;;;;;;;;5072842;28;20175;-72
2021/01/08 00:42:07;;;;;;;11.30;8.48;;;;;;;;;;5075757;28;20204;-73
2021/01/08 00:44:33;;;;;;;11.07;8.00;;;;;;;;;;5082453;28;20183;-71
2021/01/08 00:47:00;;;;;;;9.40;7.70;;;;;;;;;;5075632;28;20195;-72
2021/01/08 00:49:26;;;;;;;10.43;7.03;;;;;;;;;;5069709;28;20184;-71
2021/01/08 00:51:53;;;;;;;10.15;7.60;;;;;;;;;;5086000;28;20198;-72
2021/01/08 00:54:19;;;;;;;10.60;7.88;;;;;;;;;;5075681;28;20350;-71
2021/01/08 00:56:46;;;;;;;9.82;7.50;;;;;;;;;;5081200;28;20211;-72
2021/01/08 00:59:12;;;;;;;11.63;7.78;;;;;;;;;;5082738;28;20698;-70
2021/01/08 01:01:38;;;;;;;10.32;8.15;;;;;;;;;;5076384;28;20206;-72
2021/01/08 01:04:04;;;;;;;10.38;7.72;;;;;;;;;;5091387;28;20540;-73
2021/01/08 01:06:33;;;;;;;10.10;7.70;;;;;;;;;;5082102;28;20188;-73
2021/01/08 01:08:59;;;;;;;9.82;7.50;;;;;;;;;;5077272;28;20183;-70
2021/01/08 01:11:26;;;;;;;12.80;8.18;;;;;;;;;;5093018;28;20202;-71
2021/01/08 01:13:55;;;;;;;11.68;8.77;;;;;;;;;;5093125;28;20187;-73
2021/01/08 01:16:21;;;;;;;10.68;8.05;;;;;;;;;;5096622;28;20179;-70
2021/01/08 01:18:48;;;;;;;10.00;7.63;;;;;;;;;;5097625;28;20176;-72
2021/01/08 01:21:14;;;;;;;9.70;7.80;;;;;;;;;;5096804;28;20202;-72
2021/01/08 01:23:40;;;;;;;9.63;7.80;;;;;;;;;;5081985;28;20599;-71
2021/01/08 01:26:07;;;;;;;10.73;7.75;;;;;;;;;;5077015;28;20294;-72
2021/01/08 01:28:33;;;;;;;9.65;7.20;;;;;;;;;;5083628;28;20273;-72
2021/01/08 01:30:59;;;;;;;9.65;7.25;;;;;;;;;;5096823;28;20285;-71
2021/01/08 01:33:26;;;;;;;9.25;6.68;;;;;;;;;;5096940;28;20171;-72
2021/01/08 01:35:52;;;;;;;10.15;7.60;;;;;;;;;;5096472;28;20171;-73
2021/01/08 01:38:18;;;;;;;7.72;6.20;;;;;;;;;;5096619;28;20237;-73
2021/01/08 01:40:44;;;;;;;7.97;6.15;;;;;;;;;;5088504;28;20688;-70
2021/01/08 01:43:10;;;;;;;7.72;5.75;;;;;;;;;;5076543;28;20233;-73
2021/01/08 01:45:36;;;;;;;7.78;6.00;;;;;;;;;;5076027;28;20180;-72
2021/01/08 01:48:03;;;;;;;8.80;6.53;;;;;;;;;;5076207;28;20660;-71
2021/01/08 01:50:29;;;;;;;8.15;6.15;;;;;;;;;;5076309;28;20192;-70
2021/01/08 01:52:55;;;;;;;7.93;6.00;;;;;;;;;;5075948;28;20303;-70
2021/01/08 01:55:22;;;;;;;9.68;6.43;;;;;;;;;;5075815;28;20237;-74
2021/01/08 01:57:51;;;;;;;9.45;6.80;;;;;;;;;;5079545;28;20203;-72
2021/01/08 02:00:17;;;;;;;7.53;6.05;;;;;;;;;;5096271;28;20184;-73
2021/01/08 02:02:47;;;;;;;8.60;6.63;;;;;;;;;;5096105;28;20569;-71
2021/01/08 02:05:14;;;;;;;8.45;6.70;;;;;;;;;;5095847;28;20232;-70
2021/01/08 02:07:48;;;;;;;8.18;5.82;;;;;;;;;;5095078;28;20234;-73
2021/01/08 02:10:15;;;;;;;9.98;6.57;;;;;;;;;;5089820;28;20180;-73
2021/01/08 02:12:43;;;;;;;7.65;6.03;;;;;;;;;;5076961;28;20175;-73
2021/01/08 02:15:10;;;;;;;8.30;5.80;;;;;;;;;;5094498;28;20183;-71
2021/01/08 02:17:36;;;;;;;9.20;6.70;;;;;;;;;;5092729;28;20195;-72
2021/01/08 02:20:03;;;;;;;9.13;6.47;;;;;;;;;;5094894;28;20183;-73
2021/01/08 02:22:29;;;;;;;9.00;6.22;;;;;;;;;;5094721;28;20175;-70
2021/01/08 02:24:55;;;;;;;8.50;5.70;;;;;;;;;;5094205;28;20639;-71
2021/01/08 02:27:21;;;;;;;8.43;6.63;;;;;;;;;;5090551;28;20437;-72
2021/01/08 02:29:47;;;;;;;8.10;6.30;;;;;;;;;;5081682;28;20401;-72
2021/01/08 02:32:13;;;;;;;8.77;6.80;;;;;;;;;;5083354;28;20550;-71
2021/01/08 02:34:39;;;;;;;9.82;7.13;;;;;;;;;;5074905;28;20184;-72
2021/01/08 02:37:05;;;;;;;8.35;6.10;;;;;;;;;;5092529;28;20211;-72
2021/01/08 02:39:32;;;;;;;8.23;6.38;;;;;;;;;;5094545;28;20191;-71
2021/01/08 02:41:58;;;;;;;9.13;6.35;;;;;;;;;;5089100;28;20284;-72
2021/01/08 02:44:24;;;;;;;9.35;6.18;;;;;;;;;;5073964;28;20172;-72
2021/01/08 02:46:50;;;;;;;10.73;6.63;;;;;;;;;;5082371;28;20186;-73
2021/01/08 02:49:16;;;;;;;10.95;6.55;;;;;;;;;;5090980;28;20188;-72
2021/01/08 02:51:42;;;;;;;9.63;6.85;;;;;;;;;;5093961;28;20202;-72
2021/01/08 02:54:09;;;;;;;12.63;7.82;;;;;;;;;;5093865;28;20525;-72
2021/01/08 02:56:47;;;;;;;11.23;7.50;;;;;;;;;;5088875;28;20245;-73
2021/01/08 02:59:13;;;;;;;9.60;6.80;;;;;;;;;;5083141;28;20250;-73
2021/01/08 03:01:40;;;;;;;12.32;7.50;;;;;;;;;;5084596;28;20195;-74
2021/01/08 03:04:06;;;;;;;9.85;7.00;;;;;;;;;;5085282;28;20237;-73
2021/01/08 03:06:33;;;;;;;10.83;7.67;;;;;;;;;;5071962;28;630561;-73
2021/01/08 03:09:02;;;;;;;11.43;7.82;;;;;;;;;;5097686;28;20539;-72
2021/01/08 03:11:28;;;;;;;9.85;7.10;;;;;;;;;;5097061;28;20336;-71
2021/01/08 03:13:55;;;;;;;11.45;7.15;;;;;;;;;;5094890;28;20186;-73
2021/01/08 03:16:21;;;;;;;10.30;7.50;;;;;;;;;;5094376;28;20180;-71
2021/01/08 03:18:47;;;;;;;11.63;7.35;;;;;;;;;;5094778;28;20238;-73
2021/01/08 03:21:13;;;;;;;13.00;8.18;;;;;;;;;;5095258;28;20284;-72
2021/01/08 03:23:39;;;;;;;10.50;7.35;;;;;;;;;;5075849;28;20212;-72
2021/01/08 03:26:05;;;;;;;10.05;7.18;;;;;;;;;;5074473;28;20177;-73
2021/01/08 03:28:31;;;;;;;11.25;7.40;;;;;;;;;;5085523;28;20233;-71
2021/01/08 03:30:57;;;;;;;10.48;7.20;;;;;;;;;;5094422;28;20199;-73
2021/01/08 03:33:23;;;;;;;10.43;7.30;;;;;;;;;;5075923;28;20562;-72
2021/01/08 03:35:49;;;;;;;11.90;8.18;;;;;;;;;;5078850;28;20190;-72
2021/01/08 03:38:15;;;;;;;17.35;7.35;;;;;;;;;;5089113;28;20655;-73
2021/01/08 03:40:41;;;;;;;11.90;7.72;;;;;;;;;;5094253;28;20245;-71
2021/01/08 03:43:08;;;;;;;11.77;7.85;;;;;;;;;;5083717;28;20172;-71
2021/01/08 03:45:34;;;;;;;11.07;7.80;;;;;;;;;;5093997;28;20630;-71
2021/01/08 03:48:00;;;;;;;9.55;6.85;;;;;;;;;;5093433;28;20179;-71
2021/01/08 03:50:26;;;;;;;12.77;8.63;;;;;;;;;;5094452;28;20206;-74
2021/01/08 03:52:52;;;;;;;10.88;7.40;;;;;;;;;;5089730;28;20180;-72
2021/01/08 03:55:18;;;;;;;11.90;7.68;;;;;;;;;;5093256;28;20292;-72
2021/01/08 03:57:44;;;;;;;11.38;7.28;;;;;;;;;;5093922;28;20242;-73
2021/01/08 04:00:10;;;;;;;10.95;8.02;;;;;;;;;;5087705;28;20665;-72
2021/01/08 04:02:36;;;;;;;12.10;7.95;;;;;;;;;;5094186;28;20532;-72
2021/01/08 04:05:03;;;;;;;10.65;7.35;;;;;;;;;;5090454;28;20172;-72
2021/01/08 04:07:29;;;;;;;11.80;7.75;;;;;;;;;;5093793;28;20241;-73
2021/01/08 04:09:55;;;;;;;11.50;7.75;;;;;;;;;;5101013;28;20171;-72
2021/01/08 04:12:21;;;;;;;12.52;7.82;;;;;;;;;;5093736;28;20252;-74
2021/01/08 04:14:47;;;;;;;14.13;8.18;;;;;;;;;;5093612;28;20575;-73
2021/01/08 04:17:13;;;;;;;13.15;7.82;;;;;;;;;;5088356;28;20206;-75
2021/01/08 04:19:39;;;;;;;12.07;7.50;;;;;;;;;;5093371;28;20236;-73
2021/01/08 04:22:05;;;;;;;11.63;7.38;;;;;;;;;;5073559;28;20598;-72
2021/01/08 04:24:31;;;;;;;11.93;7.80;;;;;;;;;;5081631;28;20187;-72
2021/01/08 04:26:57;;;;;;;13.32;8.65;;;;;;;;;;5083660;28;20183;-71
2021/01/08 04:29:23;;;;;;;15.38;8.15;;;;;;;;;;5093274;28;20248;-73
2021/01/08 04:31:49;;;;;;;13.27;7.28;;;;;;;;;;5087220;28;20204;-71
2021/01/08 04:34:15;;;;;;;15.63;8.40;;;;;;;;;;5079483;28;20188;-73
2021/01/08 04:36:41;;;;;;;14.23;8.40;;;;;;;;;;5081953;28;20180;-72
2021/01/08 04:39:07;;;;;;;12.50;7.93;;;;;;;;;;5086274;28;20182;-72
2021/01/08 04:41:35;;;;;;;13.30;7.93;;;;;;;;;;5093518;28;20199;-71
2021/01/08 04:44:02;;;;;;;14.73;7.80;;;;;;;;;;5092655;28;20175;-71
2021/01/08 04:46:32;;;;;;;12.98;7.88;;;;;;;;;;5073323;28;20229;-72
2021/01/08 04:49:02;;;;;;;13.32;8.20;;;;;;;;;;5075875;28;20183;-71
2021/01/08 04:51:29;;;;;;;15.68;9.10;;;;;;;;;;5079898;28;20198;-72
2021/01/08 04:53:55;;;;;;;16.73;9.50;;;;;;;;;;5084946;28;20220;-73
2021/01/08 04:56:22;;;;;;;15.30;9.20;;;;;;;;;;5074464;28;20589;-71
2021/01/08 04:58:48;;;;;;;17.13;8.85;;;;;;;;;;5077216;28;20209;-71
2021/01/08 05:01:15;;;;;;;15.55;9.25;;;;;;;;;;5090333;28;20202;-70
2021/01/08 05:03:41;;;;;;;14.85;8.80;;;;;;;;;;5092945;28;20201;-72
2021/01/08 05:06:07;;;;;;;15.35;8.68;;;;;;;;;;5082215;28;20685;-74
2021/01/08 05:08:33;;;;;;;14.02;8.93;;;;;;;;;;5074130;28;20215;-73
2021/01/08 05:11:19;;;;;;;18.33;9.35;;;;;;;;;;5093390;28;20227;-73
2021/01/08 05:13:50;;;;;;;17.48;9.85;;;;;;;;;;5085716;28;20191;-74
2021/01/08 05:16:16;;;;;;;16.70;9.80;;;;;;;;;;5075380;28;20179;-73
2021/01/08 05:18:42;;;;;;;15.93;9.18;;;;;;;;;;5091096;28;20740;-73
2021/01/08 05:21:08;;;;;;;17.98;9.63;;;;;;;;;;5091909;28;20203;-73
2021/01/08 05:23:35;;;;;;;16.50;10.38;;;;;;;;;;5089552;28;20605;-73
2021/01/08 05:26:02;;;;;;;18.67;10.80;;;;;;;;;;5092947;28;20179;-73
2021/01/08 05:28:29;;;;;;;16.45;9.50;;;;;;;;;;5090903;28;20206;-72
2021/01/08 05:30:57;;;;;;;16.23;9.73;;;;;;;;;;5092541;28;20275;-72
2021/01/08 05:33:23;;;;;;;20.73;10.10;;;;;;;;;;5081139;28;20183;-74
2021/01/08 05:35:51;;;;;;;15.50;9.18;;;;;;;;;;5076860;28;20180;-73
2021/01/08 05:38:20;;;;;;;17.20;9.88;;;;;;;;;;5082179;28;20200;-71
2021/01/08 05:40:46;;;;;;;16.13;8.80;;;;;;;;;;5072269;28;20200;-74
2021/01/08 05:43:12;;;;;;;15.98;9.35;;;;;;;;;;5090540;28;20194;-73
2021/01/08 05:45:38;;;;;;;17.15;9.85;;;;;;;;;;5089655;28;20819;-71
2021/01/08 05:48:05;;;;;;;17.50;9.30;;;;;;;;;;5072565;28;20177;-73
2021/01/08 05:50:32;;;;;;;18.98;9.93;;;;;;;;;;5083813;28;20210;-73
2021/01/08 05:53:03;;;;;;;17.33;9.38;;;;;;;;;;5092219;28;20636;-74
2021/01/08 05:55:29;;;;;;;17.33;9.38;;;;;;;;;;5088648;28;20177;-73
2021/01/08 05:57:55;;;;;;;17.55;10.27;;;;;;;;;;5072446;28;20648;-74
2021/01/08 06:00:22;;;;;;;18.70;9.93;;;;;;;;;;5090505;28;20207;-72
2021/01/08 06:02:49;;;;;;;16.73;10.38;;;;;;;;;;5096181;28;20172;-71
2021/01/08 06:05:16;;;;;;;16.70;9.70;;;;;;;;;;5095776;28;20215;-71
2021/01/08 06:07:43;;;;;;;17.67;10.48;;;;;;;;;;5087491;28;20199;-73
2021/01/08 06:10:10;;;;;;;19.88;12.02;;;;;;;;;;5100574;28;20215;-72
2021/01/08 06:12:39;;;;;;;18.00;10.55;;;;;;;;;;5087968;28;20263;-73
2021/01/08 06:15:07;;;;;;;17.10;10.80;;;;;;;;;;5077473;28;20176;-73
2021/01/08 06:17:33;;;;;;;17.48;10.93;;;;;;;;;;5096089;28;20199;-71
2021/01/08 06:20:03;;;;;;;18.25;10.70;;;;;;;;;;5095733;28;20179;-74
2021/01/08 06:22:36;;;;;;;18.23;10.35;;;;;;;;;;5092436;28;20207;-73
2021/01/08 06:25:03;;;;;;;19.13;11.30;;;;;;;;;;5090319;28;20587;-71
2021/01/08 06:27:32;;;;;;;19.10;10.85;;;;;;;;;;5094632;28;20179;-72
2021/01/08 06:30:07;;;;;;;21.45;11.80;;;;;;;;;;5077828;28;20227;-71
2021/01/08 06:32:34;;;;;;;21.15;11.15;;;;;;;;;;5088662;28;20536;-72
2021/01/08 06:35:09;;;;;;;19.42;10.40;;;;;;;;;;5095279;28;20254;-74
2021/01/08 06:37:42;;;;;;;18.23;10.60;;;;;;;;;;5083261;28;20191;-71
2021/01/08 06:40:09;;;;;;;19.10;11.27;;;;;;;;;;5093169;28;20251;-73
2021/01/08 06:42:41;;;;;;;17.92;10.20;;;;;;;;;;5088530;28;20179;-74
2021/01/08 06:45:11;;;;;;;19.13;10.40;;;;;;;;;;5094548;28;20289;-71
2021/01/08 06:47:42;;;;;;;19.70;11.80;;;;;;;;;;5095415;28;20172;-73
2021/01/08 06:50:13;;;;;;;22.73;11.20;;;;;;;;;;5090831;28;20188;-72
2021/01/08 06:52:43;;;;;;;20.50;12.05;;;;;;;;;;5084705;28;20179;-73
2021/01/08 06:55:13;;;;;;;24.00;12.05;;;;;;;;;;5088251;28;20215;-71
2021/01/08 06:57:47;;;;;;;22.52;13.02;;;;;;;;;;5088355;28;20195;-72
2021/01/08 07:00:15;;;;;;;23.13;12.43;;;;;;;;;;5087892;28;20176;-73
2021/01/08 07:02:41;;;;;;;21.55;11.52;;;;;;;;;;5089225;28;20262;-71
2021/01/08 07:05:08;;;;;;;21.92;13.00;;;;;;;;;;5086678;28;20212;-73
2021/01/08 07:07:34;;;;;;;21.83;12.82;;;;;;;;;;5074589;28;20200;-73
2021/01/08 07:10:01;;;;;;;22.27;12.48;;;;;;;;;;5094829;28;20194;-74
2021/01/08 07:12:27;;;;;;;24.63;12.52;;;;;;;;;;5090744;28;20199;-73
2021/01/08 07:14:54;;;;;;;23.08;13.05;;;;;;;;;;5093207;28;20266;-73
2021/01/08 07:17:33;;;;;;;21.58;12.35;;;;;;;;;;5094050;28;20758;-72
2021/01/08 07:20:03;;;;;;;20.75;12.20;;;;;;;;;;5079503;28;20175;-73
2021/01/08 07:22:39;;;;;;;21.75;12.38;;;;;;;;;;5094328;28;20187;-72
2021/01/08 07:25:07;;;;;;;19.52;11.75;;;;;;;;;;5085526;28;20182;-72
2021/01/08 07:27:34;;;;;;;21.50;11.70;;;;;;;;;;5094742;28;20506;-73
2021/01/08 07:30:01;;;;;;;22.77;12.75;;;;;;;;;;5082786;28;20176;-73
2021/01/08 07:32:40;;;;;;;20.75;12.90;;;;;;;;;;5079182;28;20191;-73
2021/01/08 07:35:18;;;;;;;23.58;12.43;;;;;;;;;;5081783;28;20187;-74
2021/01/08 07:37:56;;;;;;;22.00;11.98;;;;;;;;;;5091201;28;20199;-73
2021/01/08 07:40:23;;;;;;;19.55;11.60;;;;;;;;;;5094296;28;20210;-71
2021/01/08 07:43:07;;;;;;;23.38;12.70;;;;;;;;;;5084419;28;20173;-70
2021/01/08 07:45:49;;;;;;;21.27;12.00;;;;;;;;;;5074283;28;20250;-72
2021/01/08 07:48:18;;;;;;;25.33;13.45;;;;;;;;;;5088705;28;20183;-73
2021/01/08 07:51:04;;;;;;;25.60;13.35;;;;;;;;;;5085221;28;20316;-73
2021/01/08 07:53:50;;;;;;;23.70;13.93;;;;;;;;;;5077816;28;20221;-74
2021/01/08 07:56:17;;;;;;;24.80;13.30;;;;;;;;;;5076928;28;20244;-72
2021/01/08 07:58:47;;;;;;;23.20;12.52;;;;;;;;;;5087129;28;20233;-73
2021/01/08 08:01:15;;;;;;;23.73;13.80;;;;;;;;;;5081114;28;20197;-72
2021/01/08 08:03:41;;;;;;;25.20;14.25;;;;;;;;;;5089743;28;20172;-73
2021/01/08 08:06:08;;;;;;;28.77;14.10;;;;;;;;;;5089851;28;20198;-73
2021/01/08 08:08:39;;;;;;;25.75;14.18;;;;;;;;;;5088574;28;20188;-72
2021/01/08 08:11:26;;;;;;;23.80;13.45;;;;;;;;;;5085823;28;20246;-72
2021/01/08 08:13:52;;;;;;;25.63;14.00;;;;;;;;;;5089438;28;20213;-73
2021/01/08 08:16:18;;;;;;;25.30;13.77;;;;;;;;;;5089665;28;20266;-72
2021/01/08 08:18:51;;;;;;;27.77;13.90;;;;;;;;;;5069947;28;20273;-73
2021/01/08 08:21:17;;;;;;;24.65;13.65;;;;;;;;;;5079236;28;20202;-74
2021/01/08 08:23:50;;;;;;;27.50;15.27;;;;;;;;;;5083808;28;20633;-74
2021/01/08 08:26:17;;;;;;;26.85;14.63;;;;;;;;;;5082449;28;20285;-74
2021/01/08 08:28:43;;;;;;;40.80;24.50;;;;;;;;;;5090267;28;20221;-74
2021/01/08 08:31:09;;;;;;;24.95;14.00;;;;;;;;;;5089074;28;20747;-72
2021/01/08 08:33:35;;;;;;;24.55;13.60;;;;;;;;;;5087679;28;20171;-73
2021/01/08 08:36:01;;;;;;;23.50;13.50;;;;;;;;;;5085112;28;20187;-73
2021/01/08 08:38:27;;;;;;;25.17;14.18;;;;;;;;;;5069402;28;20289;-73
2021/01/08 08:40:53;;;;;;;26.85;14.82;;;;;;;;;;5074870;28;20566;-74
2021/01/08 08:43:21;;;;;;;23.48;13.75;;;;;;;;;;5080643;28;20187;-74
2021/01/08 08:45:47;;;;;;;27.80;14.48;;;;;;;;;;5068831;28;20777;-72
2021/01/08 08:48:14;;;;;;;27.80;15.50;;;;;;;;;;5087199;28;20213;-72
2021/01/08 08:50:43;;;;;;;27.10;14.93;;;;;;;;;;5087736;28;20286;-73
2021/01/08 08:53:10;;;;;;;29.80;15.98;;;;;;;;;;5078346;28;20577;-74
2021/01/08 08:55:36;;;;;;;26.40;14.70;;;;;;;;;;5083746;28;20240;-73
2021/01/08 08:58:10;;;;;;;28.73;16.00;;;;;;;;;;5086849;28;20207;-73
2021/01/08 09:00:37;;;;;;;25.92;15.40;;;;;;;;;;5082996;28;20199;-72
2021/01/08 09:03:15;;;;;;;25.60;15.18;;;;;;;;;;5070818;28;20168;-74
2021/01/08 09:05:41;;;;;;;24.95;14.93;;;;;;;;;;5083265;28;20575;-73
2021/01/08 09:08:17;;;;;;;27.48;14.93;;;;;;;;;;5073795;28;20326;-74
2021/01/08 09:10:50;;;;;;;22.20;13.55;;;;;;;;;;5087859;28;20283;-73
2021/01/08 09:13:19;;;;;;;24.80;15.05;;;;;;;;;;5088339;28;20266;-73
2021/01/08 09:15:45;;;;;;;24.02;15.50;;;;;;;;;;5083946;28;20643;-73
2021/01/08 09:18:30;;;;;;;22.95;14.23;;;;;;;;;;5071590;28;20215;-74
2021/01/08 09:21:22;;;;;;;23.20;13.80;;;;;;;;;;5077051;28;20240;-74
2021/01/08 09:23:48;;;;;;;20.42;13.18;;;;;;;;;;5076200;28;20188;-73
2021/01/08 09:26:18;;;;;;;20.88;12.20;;;;;;;;;;5088712;28;20183;-74
2021/01/08 09:28:55;;;;;;;24.42;14.63;;;;;;;;;;5088898;28;20175;-72
2021/01/08 09:31:21;;;;;;;23.50;14.80;;;;;;;;;;5069548;28;20252;-73
2021/01/08 09:33:57;;;;;;;22.05;13.48;;;;;;;;;;5081692;28;20190;-72
2021/01/08 09:36:30;;;;;;;20.50;12.80;;;;;;;;;;5089055;28;20196;-74
2021/01/08 09:38:58;;;;;;;22.50;14.20;;;;;;;;;;5093080;28;20209;-73
2021/01/08 09:41:24;;;;;;;22.02;13.70;;;;;;;;;;5084197;28;20274;-71
2021/01/08 09:43:57;;;;;;;23.02;14.00;;;;;;;;;;5091276;28;20176;-74
2021/01/08 09:46:23;;;;;;;24.05;14.77;;;;;;;;;;5081587;28;20645;-73
2021/01/08 09:48:49;;;;;;;20.10;12.98;;;;;;;;;;5090047;28;20197;-73
2021/01/08 09:51:15;;;;;;;18.60;12.10;;;;;;;;;;5092029;28;20207;-73
2021/01/08 09:53:41;;;;;;;21.13;12.55;;;;;;;;;;5084949;28;20314;-74
2021/01/08 09:56:14;;;;;;;24.58;14.15;;;;;;;;;;5087092;28;20262;-73
2021/01/08 09:58:40;;;;;;;22.50;13.55;;;;;;;;;;5078340;28;20207;-73
2021/01/08 10:01:08;;;;;;;21.30;14.43;;;;;;;;;;5082885;28;20228;-73
2021/01/08 10:03:34;;;;;;;20.85;13.05;;;;;;;;;;5092085;28;20177;-72
2021/01/08 10:06:03;;;;;;;20.42;12.80;;;;;;;;;;5091924;28;20179;-73
2021/01/08 10:08:30;;;;;;;17.75;11.77;;;;;;;;;;5088109;28;20180;-73
2021/01/08 10:10:58;;;;;;;21.40;12.55;;;;;;;;;;5100439;28;20691;-73
2021/01/08 10:13:24;;;;;;;19.30;12.80;;;;;;;;;;5087636;28;20548;-74
2021/01/08 10:15:51;;;;;;;23.08;13.75;;;;;;;;;;5078473;28;20187;-73
2021/01/08 10:18:27;;;;;;;19.95;12.38;;;;;;;;;;5080480;28;20203;-74
2021/01/08 10:21:02;;;;;;;18.35;12.60;;;;;;;;;;5078388;28;20228;-72
2021/01/08 10:23:28;;;;;;;21.13;12.50;;;;;;;;;;5079083;28;20179;-73
2021/01/08 10:25:55;;;;;;;21.92;13.23;;;;;;;;;;5077493;28;20202;-74
2021/01/08 10:28:25;;;;;;;22.33;13.48;;;;;;;;;;5089702;28;20191;-72
2021/01/08 10:30:52;;;;;;;20.92;12.57;;;;;;;;;;5090076;28;20206;-75
2021/01/08 10:33:18;;;;;;;19.85;12.75;;;;;;;;;;5092072;28;20545;-74
2021/01/08 10:35:48;;;;;;;22.67;13.70;;;;;;;;;;5092331;28;20582;-73
2021/01/08 10:38:14;;;;;;;66.35;43.50;;;;;;;;;;5085965;28;20622;-74
2021/01/08 10:40:41;;;;;;;20.67;13.05;;;;;;;;;;5091386;28;20195;-73
2021/01/08 10:43:07;;;;;;;19.27;12.80;;;;;;;;;;5091116;28;20183;-73
2021/01/08 10:45:33;;;;;;;23.63;13.00;;;;;;;;;;5090690;28;20186;-74
2021/01/08 10:47:59;;;;;;;20.52;12.63;;;;;;;;;;5090842;28;20188;-74
2021/01/08 10:50:25;;;;;;;21.38;13.30;;;;;;;;;;5086436;28;20227;-72
2021/01/08 10:52:51;;;;;;;22.40;13.80;;;;;;;;;;5091380;28;20175;-72
2021/01/08 10:55:17;;;;;;;22.38;13.48;;;;;;;;;;5089861;28;20230;-74
2021/01/08 10:57:43;;;;;;;21.80;13.20;;;;;;;;;;5084763;28;20286;-72
2021/01/08 11:00:10;;;;;;;20.88;14.10;;;;;;;;;;5091126;28;20282;-72
2021/01/08 11:02:37;;;;;;;20.27;13.00;;;;;;;;;;5091102;28;20191;-72
2021/01/08 11:05:06;;;;;;;19.55;12.77;;;;;;;;;;5086374;28;20172;-73
2021/01/08 11:07:33;;;;;;;16.98;11.85;;;;;;;;;;5090911;28;20230;-73
2021/01/08 11:10:00;;;;;;;19.50;11.70;;;;;;;;;;5090577;28;20262;-74
2021/01/08 11:12:26;;;;;;;16.75;11.82;;;;;;;;;;5088712;28;20720;-74
2021/01/08 11:14:53;;;;;;;18.63;12.13;;;;;;;;;;5090372;28;20183;-73
2021/01/08 11:17:19;;;;;;;18.35;11.60;;;;;;;;;;5090227;28;20214;-71
2021/01/08 11:19:45;;;;;;;18.35;11.93;;;;;;;;;;5090487;28;20214;-73
2021/01/08 11:22:11;;;;;;;18.58;11.93;;;;;;;;;;5090795;28;20221;-71
2021/01/08 11:24:37;;;;;;;19.27;11.70;;;;;;;;;;5080661;28;20967;-71
2021/01/08 11:27:04;;;;;;;20.35;11.93;;;;;;;;;;5091006;28;20175;-73
2021/01/08 11:29:30;;;;;;;19.33;12.13;;;;;;;;;;5086497;28;20230;-72
2021/01/08 11:31:56;;;;;;;20.17;11.70;;;;;;;;;;5089065;28;20676;-74
2021/01/08 11:34:22;;;;;;;20.48;13.35;;;;;;;;;;5090351;28;20194;-74
2021/01/08 11:36:48;;;;;;;16.05;10.63;;;;;;;;;;5090653;28;20187;-73
2021/01/08 11:39:15;;;;;;;20.08;12.65;;;;;;;;;;5090210;28;20228;-76
2021/01/08 11:41:41;;;;;;;20.55;12.30;;;;;;;;;;5086490;28;20710;-73
2021/01/08 11:44:07;;;;;;;19.48;12.80;;;;;;;;;;5089785;28;20185;-74
2021/01/08 11:46:33;;;;;;;21.15;11.63;;;;;;;;;;5090296;28;20202;-72
2021/01/08 11:48:59;;;;;;;19.23;12.00;;;;;;;;;;5089154;28;20529;-73
2021/01/08 11:51:25;;;;;;;21.05;12.98;;;;;;;;;;5090047;28;20211;-73
2021/01/08 11:53:52;;;;;;;17.02;11.30;;;;;;;;;;5084836;28;20235;-74
2021/01/08 11:56:18;;;;;;;22.90;14.80;;;;;;;;;;5077971;28;20192;-72
2021/01/08 11:58:45;;;;;;;18.90;12.40;;;;;;;;;;5087255;28;20234;-72
2021/01/08 12:01:11;;;;;;;14.88;11.45;;;;;;;;;;5090126;28;20556;-73
2021/01/08 12:03:39;;;;;;;19.85;12.88;;;;;;;;;;5085768;28;20184;-72
2021/01/08 12:06:06;;;;;;;20.38;12.20;;;;;;;;;;5069717;28;20183;-73
2021/01/08 12:08:32;;;;;;;17.50;11.52;;;;;;;;;;5081146;28;20187;-72
2021/01/08 12:10:58;;;;;;;15.45;10.35;;;;;;;;;;5079921;28;20242;-73
2021/01/08 12:13:24;;;;;;;18.02;10.95;;;;;;;;;;5081840;28;20184;-71
2021/01/08 12:15:51;;;;;;;18.85;12.50;;;;;;;;;;5069411;28;20176;-74
2021/01/08 12:18:17;;;;;;;20.70;12.68;;;;;;;;;;5086260;28;20571;-73
2021/01/08 12:20:44;;;;;;;15.93;11.75;;;;;;;;;;5089046;28;20238;-72
2021/01/08 12:23:10;;;;;;;19.10;12.98;;;;;;;;;;5078746;28;20187;-72
2021/01/08 12:25:37;;;;;;;17.33;11.43;;;;;;;;;;5069385;28;20179;-73
2021/01/08 12:28:06;;;;;;;18.85;11.50;;;;;;;;;;5071909;28;20537;-71
2021/01/08 12:30:32;;;;;;;16.90;11.25;;;;;;;;;;5073852;28;20562;-70
2021/01/08 12:32:59;;;;;;;16.92;11.02;;;;;;;;;;5077509;28;20664;-73
2021/01/08 12:35:25;;;;;;;15.80;10.77;;;;;;;;;;5086092;28;20187;-71
2021/01/08 12:37:52;;;;;;;16.77;10.50;;;;;;;;;;5089935;28;20226;-71
2021/01/08 12:40:18;;;;;;;15.38;10.82;;;;;;;;;;5081464;28;20203;-73
2021/01/08 12:42:45;;;;;;;14.18;10.02;;;;;;;;;;5072610;28;20657;-73
2021/01/08 12:45:12;;;;;;;14.93;9.82;;;;;;;;;;5087991;28;20198;-73
2021/01/08 12:47:38;;;;;;;15.90;10.90;;;;;;;;;;5089493;28;20191;-73
2021/01/08 12:50:04;;;;;;;18.25;12.55;;;;;;;;;;5085991;28;20545;-74
2021/01/08 12:52:30;;;;;;;15.20;10.40;;;;;;;;;;5082224;28;20200;-72
2021/01/08 12:54:57;;;;;;;16.30;10.65;;;;;;;;;;5084142;28;20190;-74
2021/01/08 12:57:23;;;;;;;13.40;9.63;;;;;;;;;;5086140;28;20203;-71
2021/01/08 12:59:49;;;;;;;13.27;10.00;;;;;;;;;;5072791;28;20799;-73
2021/01/08 13:02:15;;;;;;;14.13;9.43;;;;;;;;;;5080020;28;20580;-72
2021/01/08 13:04:41;;;;;;;14.90;9.43;;;;;;;;;;5088108;28;20572;-71
2021/01/08 13:07:07;;;;;;;14.00;9.82;;;;;;;;;;5086976;28;20214;-72
2021/01/08 13:09:33;;;;;;;14.80;10.45;;;;;;;;;;5093276;28;20315;-72
2021/01/08 13:11:59;;;;;;;13.63;9.50;;;;;;;;;;5087633;28;20605;-73
2021/01/08 13:14:25;;;;;;;15.88;10.05;;;;;;;;;;5088723;28;20187;-73
2021/01/08 13:16:55;;;;;;;14.55;10.02;;;;;;;;;;5090966;28;20258;-74
2021/01/08 13:19:22;;;;;;;13.70;10.60;;;;;;;;;;5093280;28;20171;-72
2021/01/08 13:21:49;;;;;;;14.02;9.73;;;;;;;;;;5092369;28;20204;-72
2021/01/08 13:24:15;;;;;;;15.18;9.15;;;;;;;;;;5080285;28;20887;-73
2021/01/08 13:26:41;;;;;;;14.63;9.90;;;;;;;;;;5093312;28;20290;-73
2021/01/08 13:29:07;;;;;;;15.05;9.90;;;;;;;;;;5089404;28;20343;-72
2021/01/08 13:31:33;;;;;;;17.55;11.00;;;;;;;;;;5073240;28;20301;-73
2021/01/08 13:33:59;;;;;;;16.63;10.90;;;;;;;;;;5086658;28;20604;-74
2021/01/08 13:36:25;;;;;;;16.40;10.05;;;;;;;;;;5091850;28;20183;-74
2021/01/08 13:38:51;;;;;;;16.15;10.55;;;;;;;;;;5092686;28;20702;-72
2021/01/08 13:41:18;;;;;;;12.80;9.43;;;;;;;;;;5082706;28;20203;-72
2021/01/08 13:43:44;;;;;;;14.63;9.73;;;;;;;;;;5076942;28;20202;-71
2021/01/08 13:46:10;;;;;;;14.65;10.20;;;;;;;;;;5092903;28;20644;-73
2021/01/08 13:48:36;;;;;;;15.52;10.57;;;;;;;;;;5092386;28;20229;-71
2021/01/08 13:51:03;;;;;;;15.35;11.35;;;;;;;;;;5090626;28;20605;-71
2021/01/08 13:53:29;;;;;;;16.95;11.60;;;;;;;;;;5091799;28;20183;-73
2021/01/08 13:55:55;;;;;;;15.38;10.95;;;;;;;;;;5091389;28;20794;-73
2021/01/08 13:58:21;;;;;;;19.58;11.98;;;;;;;;;;5089296;28;20294;-71
2021/01/08 14:00:47;;;;;;;16.15;10.90;;;;;;;;;;5091177;28;20204;-73
2021/01/08 14:03:13;;;;;;;17.92;11.40;;;;;;;;;;5085367;28;20187;-72
2021/01/08 14:05:41;;;;;;;18.02;11.40;;;;;;;;;;5080788;28;20186;-72
2021/01/08 14:08:08;;;;;;;24.95;14.40;;;;;;;;;;5091335;28;20203;-73
2021/01/08 14:10:34;;;;;;;23.75;15.73;;;;;;;;;;5088983;28;20275;-72
2021/01/08 14:13:01;;;;;;;18.05;11.82;;;;;;;;;;5087115;28;20192;-73
2021/01/08 14:15:30;;;;;;;20.05;11.80;;;;;;;;;;5084360;28;20548;-73
2021/01/08 14:17:56;;;;;;;18.95;11.80;;;;;;;;;;5092212;28;20280;-74
2021/01/08 14:20:22;;;;;;;42.80;25.38;;;;;;;;;;5080057;28;20211;-71
2021/01/08 14:22:48;;;;;;;15.20;11.05;;;;;;;;;;5087308;28;20187;-71
2021/01/08 14:25:14;;;;;;;19.42;12.02;;;;;;;;;;5086570;28;20299;-72